sensor_id;sensor_type;location;lat;lon;timestamp;P1;durP1;ratioP1;P2;durP2;ratioP2
58372;SDS011;44177;43.356;27.672;2023-04-07T00:00:28;8.57;;;5.30;;
58372;SDS011;44177;43.356;27.672;2023-04-07T00:02:54;8.85;;;5.38;;
58372;SDS011;44177;43.356;27.672;2023-04-07T00:05:20;9.57;;;5.15;;
58372;SDS011;44177;43.356;27.672;2023-04-07T00:07:46;7.55;;;5.20;;
58372;SDS011;44177;43.356;27.672;2023-04-07T00:10:11;10.18;;;5.47;;
58372;SDS011;44177;43.356;27.672;2023-04-07T00:12:37;7.50;;;5.28;;
58372;SDS011;44177;43.356;27.672;2023-04-07T00:15:02;11.60;;;5.40;;
58372;SDS011;44177;43.356;27.672;2023-04-07T00:17:28;7.90;;;5.20;;
58372;SDS011;44177;43.356;27.672;2023-04-07T00:19:54;7.75;;;5.90;;
58372;SDS011;44177;43.356;27.672;2023-04-07T00:22:19;10.32;;;6.30;;
58372;SDS011;44177;43.356;27.672;2023-04-07T00:24:44;10.88;;;6.53;;
58372;SDS011;44177;43.356;27.672;2023-04-07T00:27:10;8.95;;;6.63;;
58372;SDS011;44177;43.356;27.672;2023-04-07T00:29:35;8.68;;;6.13;;
58372;SDS011;44177;43.356;27.672;2023-04-07T00:32:01;8.07;;;6.05;;
58372;SDS011;44177;43.356;27.672;2023-04-07T00:34:26;10.38;;;5.85;;
58372;SDS011;44177;43.356;27.672;2023-04-07T00:36:52;9.60;;;5.85;;
58372;SDS011;44177;43.356;27.672;2023-04-07T00:39:18;10.32;;;6.32;;
58372;SDS011;44177;43.356;27.672;2023-04-07T00:41:44;8.98;;;6.13;;
58372;SDS011;44177;43.356;27.672;2023-04-07T00:44:10;8.80;;;6.00;;
58372;SDS011;44177;43.356;27.672;2023-04-07T00:46:36;8.88;;;6.05;;
58372;SDS011;44177;43.356;27.672;2023-04-07T00:49:02;9.63;;;6.50;;
58372;SDS011;44177;43.356;27.672;2023-04-07T00:51:27;8.60;;;6.20;;
58372;SDS011;44177;43.356;27.672;2023-04-07T00:53:53;9.48;;;6.13;;
58372;SDS011;44177;43.356;27.672;2023-04-07T00:56:19;8.77;;;6.18;;
58372;SDS011;44177;43.356;27.672;2023-04-07T00:58:45;10.20;;;6.28;;
58372;SDS011;44177;43.356;27.672;2023-04-07T01:04:11;9.23;;;5.88;;
58372;SDS011;44177;43.356;27.672;2023-04-07T01:06:52;10.70;;;6.35;;
58372;SDS011;44177;43.356;27.672;2023-04-07T01:09:24;11.30;;;6.70;;
58372;SDS011;44177;43.356;27.672;2023-04-07T01:12:18;10.88;;;6.32;;
58372;SDS011;44177;43.356;27.672;2023-04-07T01:14:50;10.50;;;6.70;;
58372;SDS011;44177;43.356;27.672;2023-04-07T01:17:20;10.88;;;6.78;;
58372;SDS011;44177;43.356;27.672;2023-04-07T01:19:57;10.43;;;6.43;;
58372;SDS011;44177;43.356;27.672;2023-04-07T01:22:31;10.68;;;7.00;;
58372;SDS011;44177;43.356;27.672;2023-04-07T01:30:28;11.75;;;6.80;;
58372;SDS011;44177;43.356;27.672;2023-04-07T01:33:00;10.90;;;6.60;;
58372;SDS011;44177;43.356;27.672;2023-04-07T01:35:28;9.23;;;6.80;;
58372;SDS011;44177;43.356;27.672;2023-04-07T01:37:56;9.13;;;6.20;;
58372;SDS011;44177;43.356;27.672;2023-04-07T01:40:24;13.02;;;6.80;;
58372;SDS011;44177;43.356;27.672;2023-04-07T01:42:51;10.65;;;6.60;;
58372;SDS011;44177;43.356;27.672;2023-04-07T01:45:17;10.70;;;6.70;;
58372;SDS011;44177;43.356;27.672;2023-04-07T01:47:44;9.18;;;6.38;;
58372;SDS011;44177;43.356;27.672;2023-04-07T01:50:10;10.25;;;7.47;;
58372;SDS011;44177;43.356;27.672;2023-04-07T01:52:37;10.68;;;6.88;;
58372;SDS011;44177;43.356;27.672;2023-04-07T01:55:04;10.27;;;6.82;;
58372;SDS011;44177;43.356;27.672;2023-04-07T01:57:30;10.70;;;6.75;;
58372;SDS011;44177;43.356;27.672;2023-04-07T01:59:56;12.73;;;7.82;;
58372;SDS011;44177;43.356;27.672;2023-04-07T02:02:22;11.82;;;7.28;;
58372;SDS011;44177;43.356;27.672;2023-04-07T02:07:30;15.68;;;7.30;;
58372;SDS011;44177;43.356;27.672;2023-04-07T02:10:04;11.45;;;7.00;;
58372;SDS011;44177;43.356;27.672;2023-04-07T02:12:32;10.32;;;7.30;;
58372;SDS011;44177;43.356;27.672;2023-04-07T02:15:00;10.95;;;7.20;;
58372;SDS011;44177;43.356;27.672;2023-04-07T02:17:28;12.35;;;7.30;;
58372;SDS011;44177;43.356;27.672;2023-04-07T02:19:57;9.80;;;7.10;;
58372;SDS011;44177;43.356;27.672;2023-04-07T02:22:25;8.93;;;6.63;;
58372;SDS011;44177;43.356;27.672;2023-04-07T02:24:51;11.52;;;7.07;;
58372;SDS011;44177;43.356;27.672;2023-04-07T02:27:17;12.73;;;7.47;;
58372;SDS011;44177;43.356;27.672;2023-04-07T02:29:43;11.93;;;7.20;;
58372;SDS011;44177;43.356;27.672;2023-04-07T02:32:09;11.48;;;7.72;;
58372;SDS011;44177;43.356;27.672;2023-04-07T02:34:35;10.48;;;7.30;;
58372;SDS011;44177;43.356;27.672;2023-04-07T02:37:00;12.52;;;7.03;;
58372;SDS011;44177;43.356;27.672;2023-04-07T02:39:25;11.68;;;7.50;;
58372;SDS011;44177;43.356;27.672;2023-04-07T02:41:51;14.07;;;7.97;;
58372;SDS011;44177;43.356;27.672;2023-04-07T02:44:16;13.32;;;7.82;;
58372;SDS011;44177;43.356;27.672;2023-04-07T02:46:42;13.88;;;7.40;;
58372;SDS011;44177;43.356;27.672;2023-04-07T02:49:07;12.18;;;7.78;;
58372;SDS011;44177;43.356;27.672;2023-04-07T02:51:33;11.15;;;7.22;;
58372;SDS011;44177;43.356;27.672;2023-04-07T02:53:58;15.10;;;8.90;;
58372;SDS011;44177;43.356;27.672;2023-04-07T02:56:23;12.80;;;8.32;;
58372;SDS011;44177;43.356;27.672;2023-04-07T02:58:49;15.48;;;8.30;;
58372;SDS011;44177;43.356;27.672;2023-04-07T03:01:14;12.10;;;7.90;;
58372;SDS011;44177;43.356;27.672;2023-04-07T03:03:40;13.75;;;7.78;;
58372;SDS011;44177;43.356;27.672;2023-04-07T03:06:06;13.98;;;8.10;;
58372;SDS011;44177;43.356;27.672;2023-04-07T03:08:32;13.23;;;8.70;;
58372;SDS011;44177;43.356;27.672;2023-04-07T03:10:57;14.40;;;8.55;;
58372;SDS011;44177;43.356;27.672;2023-04-07T03:13:23;11.05;;;8.35;;
58372;SDS011;44177;43.356;27.672;2023-04-07T03:15:48;12.50;;;8.55;;
58372;SDS011;44177;43.356;27.672;2023-04-07T03:18:14;12.52;;;8.70;;
58372;SDS011;44177;43.356;27.672;2023-04-07T03:20:39;11.77;;;8.27;;
58372;SDS011;44177;43.356;27.672;2023-04-07T03:23:06;12.32;;;8.82;;
58372;SDS011;44177;43.356;27.672;2023-04-07T03:25:32;13.52;;;8.98;;
58372;SDS011;44177;43.356;27.672;2023-04-07T03:27:57;14.13;;;8.65;;
58372;SDS011;44177;43.356;27.672;2023-04-07T03:30:23;15.13;;;9.07;;
58372;SDS011;44177;43.356;27.672;2023-04-07T03:32:49;17.27;;;9.40;;
58372;SDS011;44177;43.356;27.672;2023-04-07T03:35:15;15.63;;;10.38;;
58372;SDS011;44177;43.356;27.672;2023-04-07T03:37:40;17.38;;;10.15;;
58372;SDS011;44177;43.356;27.672;2023-04-07T03:40:06;17.35;;;9.43;;
58372;SDS011;44177;43.356;27.672;2023-04-07T03:42:32;14.75;;;10.00;;
58372;SDS011;44177;43.356;27.672;2023-04-07T03:44:57;17.05;;;10.07;;
58372;SDS011;44177;43.356;27.672;2023-04-07T03:47:23;18.08;;;10.15;;
58372;SDS011;44177;43.356;27.672;2023-04-07T03:49:48;15.23;;;9.88;;
58372;SDS011;44177;43.356;27.672;2023-04-07T03:52:14;13.93;;;9.40;;
58372;SDS011;44177;43.356;27.672;2023-04-07T03:54:39;13.30;;;9.02;;
58372;SDS011;44177;43.356;27.672;2023-04-07T03:57:05;13.77;;;9.00;;
58372;SDS011;44177;43.356;27.672;2023-04-07T03:59:31;16.70;;;9.20;;
58372;SDS011;44177;43.356;27.672;2023-04-07T04:01:56;16.02;;;9.32;;
58372;SDS011;44177;43.356;27.672;2023-04-07T04:04:22;14.00;;;9.48;;
58372;SDS011;44177;43.356;27.672;2023-04-07T04:06:49;13.50;;;9.23;;
58372;SDS011;44177;43.356;27.672;2023-04-07T04:09:14;12.38;;;8.43;;
58372;SDS011;44177;43.356;27.672;2023-04-07T04:11:40;13.15;;;9.02;;
58372;SDS011;44177;43.356;27.672;2023-04-07T04:14:06;14.88;;;9.40;;
58372;SDS011;44177;43.356;27.672;2023-04-07T04:16:31;14.45;;;8.75;;
58372;SDS011;44177;43.356;27.672;2023-04-07T04:18:59;17.67;;;10.38;;
58372;SDS011;44177;43.356;27.672;2023-04-07T04:21:25;15.77;;;9.77;;
58372;SDS011;44177;43.356;27.672;2023-04-07T04:23:51;15.30;;;10.20;;
58372;SDS011;44177;43.356;27.672;2023-04-07T04:26:17;16.13;;;10.30;;
58372;SDS011;44177;43.356;27.672;2023-04-07T04:28:42;14.82;;;9.77;;
58372;SDS011;44177;43.356;27.672;2023-04-07T04:31:08;17.48;;;10.82;;
58372;SDS011;44177;43.356;27.672;2023-04-07T04:33:33;18.25;;;10.70;;
58372;SDS011;44177;43.356;27.672;2023-04-07T04:35:59;21.67;;;10.75;;
58372;SDS011;44177;43.356;27.672;2023-04-07T04:38:25;14.55;;;10.05;;
58372;SDS011;44177;43.356;27.672;2023-04-07T04:40:50;16.77;;;10.13;;
58372;SDS011;44177;43.356;27.672;2023-04-07T04:43:16;16.70;;;10.25;;
58372;SDS011;44177;43.356;27.672;2023-04-07T04:45:41;16.25;;;9.63;;
58372;SDS011;44177;43.356;27.672;2023-04-07T04:48:06;16.73;;;10.38;;
58372;SDS011;44177;43.356;27.672;2023-04-07T04:50:33;12.40;;;8.88;;
58372;SDS011;44177;43.356;27.672;2023-04-07T04:52:58;16.73;;;10.68;;
58372;SDS011;44177;43.356;27.672;2023-04-07T04:55:24;13.13;;;9.23;;
58372;SDS011;44177;43.356;27.672;2023-04-07T04:57:49;16.17;;;9.48;;
58372;SDS011;44177;43.356;27.672;2023-04-07T05:00:15;15.75;;;9.63;;
58372;SDS011;44177;43.356;27.672;2023-04-07T05:02:40;14.05;;;9.07;;
58372;SDS011;44177;43.356;27.672;2023-04-07T05:05:07;15.25;;;9.52;;
58372;SDS011;44177;43.356;27.672;2023-04-07T05:07:32;15.52;;;9.57;;
58372;SDS011;44177;43.356;27.672;2023-04-07T05:09:58;14.23;;;9.57;;
58372;SDS011;44177;43.356;27.672;2023-04-07T05:12:23;15.25;;;9.05;;
58372;SDS011;44177;43.356;27.672;2023-04-07T05:14:49;15.35;;;9.55;;
58372;SDS011;44177;43.356;27.672;2023-04-07T05:17:14;14.07;;;9.57;;
58372;SDS011;44177;43.356;27.672;2023-04-07T05:19:40;15.43;;;9.98;;
58372;SDS011;44177;43.356;27.672;2023-04-07T05:22:05;17.40;;;10.45;;
58372;SDS011;44177;43.356;27.672;2023-04-07T05:24:31;14.15;;;9.50;;
58372;SDS011;44177;43.356;27.672;2023-04-07T05:26:56;13.95;;;8.75;;
58372;SDS011;44177;43.356;27.672;2023-04-07T05:29:22;14.45;;;9.32;;
58372;SDS011;44177;43.356;27.672;2023-04-07T05:31:47;15.30;;;9.65;;
58372;SDS011;44177;43.356;27.672;2023-04-07T05:34:13;16.48;;;9.40;;
58372;SDS011;44177;43.356;27.672;2023-04-07T05:36:38;15.27;;;8.82;;
58372;SDS011;44177;43.356;27.672;2023-04-07T05:39:04;14.65;;;9.80;;
58372;SDS011;44177;43.356;27.672;2023-04-07T05:41:30;18.67;;;9.80;;
58372;SDS011;44177;43.356;27.672;2023-04-07T05:43:55;17.42;;;10.10;;
58372;SDS011;44177;43.356;27.672;2023-04-07T05:46:21;15.55;;;9.23;;
58372;SDS011;44177;43.356;27.672;2023-04-07T05:48:46;15.10;;;10.13;;
58372;SDS011;44177;43.356;27.672;2023-04-07T05:51:12;17.45;;;10.70;;
58372;SDS011;44177;43.356;27.672;2023-04-07T05:53:37;17.20;;;11.13;;
58372;SDS011;44177;43.356;27.672;2023-04-07T05:56:03;17.13;;;10.85;;
58372;SDS011;44177;43.356;27.672;2023-04-07T05:58:28;20.20;;;8.73;;
58372;SDS011;44177;43.356;27.672;2023-04-07T06:00:54;18.65;;;10.73;;
58372;SDS011;44177;43.356;27.672;2023-04-07T06:03:19;16.05;;;11.13;;
58372;SDS011;44177;43.356;27.672;2023-04-07T06:05:45;14.68;;;9.20;;
58372;SDS011;44177;43.356;27.672;2023-04-07T06:08:11;15.75;;;10.05;;
58372;SDS011;44177;43.356;27.672;2023-04-07T06:10:36;18.70;;;12.07;;
58372;SDS011;44177;43.356;27.672;2023-04-07T06:13:02;22.77;;;15.13;;
58372;SDS011;44177;43.356;27.672;2023-04-07T06:15:27;18.40;;;10.55;;
58372;SDS011;44177;43.356;27.672;2023-04-07T06:17:53;16.73;;;10.50;;
58372;SDS011;44177;43.356;27.672;2023-04-07T06:20:18;18.67;;;11.65;;
58372;SDS011;44177;43.356;27.672;2023-04-07T06:22:47;19.65;;;10.65;;
58372;SDS011;44177;43.356;27.672;2023-04-07T06:25:12;23.05;;;14.02;;
58372;SDS011;44177;43.356;27.672;2023-04-07T06:27:38;18.48;;;12.07;;
58372;SDS011;44177;43.356;27.672;2023-04-07T06:30:03;18.13;;;12.15;;
58372;SDS011;44177;43.356;27.672;2023-04-07T06:32:29;17.00;;;12.75;;
58372;SDS011;44177;43.356;27.672;2023-04-07T06:34:55;16.00;;;10.30;;
58372;SDS011;44177;43.356;27.672;2023-04-07T06:37:21;17.33;;;10.45;;
58372;SDS011;44177;43.356;27.672;2023-04-07T06:39:49;21.55;;;12.60;;
58372;SDS011;44177;43.356;27.672;2023-04-07T06:42:14;33.65;;;20.25;;
58372;SDS011;44177;43.356;27.672;2023-04-07T06:44:40;16.27;;;9.80;;
58372;SDS011;44177;43.356;27.672;2023-04-07T06:47:05;20.63;;;14.05;;
58372;SDS011;44177;43.356;27.672;2023-04-07T06:49:31;20.45;;;16.23;;
58372;SDS011;44177;43.356;27.672;2023-04-07T06:51:56;17.17;;;10.75;;
58372;SDS011;44177;43.356;27.672;2023-04-07T06:54:22;15.63;;;8.73;;
58372;SDS011;44177;43.356;27.672;2023-04-07T06:56:47;16.02;;;9.82;;
58372;SDS011;44177;43.356;27.672;2023-04-07T06:59:13;18.90;;;10.00;;
58372;SDS011;44177;43.356;27.672;2023-04-07T07:01:38;16.35;;;10.82;;
58372;SDS011;44177;43.356;27.672;2023-04-07T07:04:04;14.90;;;9.32;;
58372;SDS011;44177;43.356;27.672;2023-04-07T07:06:30;16.55;;;10.27;;
58372;SDS011;44177;43.356;27.672;2023-04-07T07:08:56;16.98;;;10.48;;
58372;SDS011;44177;43.356;27.672;2023-04-07T07:11:22;15.57;;;10.10;;
58372;SDS011;44177;43.356;27.672;2023-04-07T07:13:48;15.20;;;10.27;;
58372;SDS011;44177;43.356;27.672;2023-04-07T07:16:13;17.13;;;10.18;;
58372;SDS011;44177;43.356;27.672;2023-04-07T07:18:38;17.55;;;10.88;;
58372;SDS011;44177;43.356;27.672;2023-04-07T07:21:04;14.85;;;10.63;;
58372;SDS011;44177;43.356;27.672;2023-04-07T07:23:30;17.50;;;10.77;;
58372;SDS011;44177;43.356;27.672;2023-04-07T07:25:55;18.65;;;10.05;;
58372;SDS011;44177;43.356;27.672;2023-04-07T07:28:21;14.82;;;10.35;;
58372;SDS011;44177;43.356;27.672;2023-04-07T07:30:47;14.50;;;9.77;;
58372;SDS011;44177;43.356;27.672;2023-04-07T07:33:13;13.98;;;10.15;;
58372;SDS011;44177;43.356;27.672;2023-04-07T07:35:39;17.02;;;10.27;;
58372;SDS011;44177;43.356;27.672;2023-04-07T07:38:05;14.95;;;10.15;;
58372;SDS011;44177;43.356;27.672;2023-04-07T07:40:31;16.48;;;10.73;;
58372;SDS011;44177;43.356;27.672;2023-04-07T07:42:57;15.02;;;9.20;;
58372;SDS011;44177;43.356;27.672;2023-04-07T07:45:22;17.70;;;10.07;;
58372;SDS011;44177;43.356;27.672;2023-04-07T07:47:48;15.95;;;9.57;;
58372;SDS011;44177;43.356;27.672;2023-04-07T07:50:14;13.18;;;8.98;;
58372;SDS011;44177;43.356;27.672;2023-04-07T07:52:39;14.20;;;9.50;;
58372;SDS011;44177;43.356;27.672;2023-04-07T07:55:05;15.10;;;9.82;;
58372;SDS011;44177;43.356;27.672;2023-04-07T07:57:31;15.95;;;10.90;;
58372;SDS011;44177;43.356;27.672;2023-04-07T07:59:57;17.42;;;10.65;;
58372;SDS011;44177;43.356;27.672;2023-04-07T08:02:22;17.13;;;9.48;;
58372;SDS011;44177;43.356;27.672;2023-04-07T08:04:53;16.60;;;10.82;;
58372;SDS011;44177;43.356;27.672;2023-04-07T08:07:19;16.05;;;10.32;;
58372;SDS011;44177;43.356;27.672;2023-04-07T08:09:44;16.42;;;10.30;;
58372;SDS011;44177;43.356;27.672;2023-04-07T08:12:09;15.73;;;10.13;;
58372;SDS011;44177;43.356;27.672;2023-04-07T08:14:35;17.60;;;9.75;;
58372;SDS011;44177;43.356;27.672;2023-04-07T08:17:00;18.58;;;10.60;;
58372;SDS011;44177;43.356;27.672;2023-04-07T08:19:26;17.20;;;10.82;;
58372;SDS011;44177;43.356;27.672;2023-04-07T08:21:51;16.27;;;10.90;;
58372;SDS011;44177;43.356;27.672;2023-04-07T08:24:17;14.68;;;9.95;;
58372;SDS011;44177;43.356;27.672;2023-04-07T08:26:42;16.33;;;10.38;;
58372;SDS011;44177;43.356;27.672;2023-04-07T08:29:09;17.98;;;10.60;;
58372;SDS011;44177;43.356;27.672;2023-04-07T08:31:35;13.82;;;9.60;;
58372;SDS011;44177;43.356;27.672;2023-04-07T08:34:00;15.93;;;9.70;;
58372;SDS011;44177;43.356;27.672;2023-04-07T08:36:26;14.43;;;9.93;;
58372;SDS011;44177;43.356;27.672;2023-04-07T08:38:52;17.42;;;11.35;;
58372;SDS011;44177;43.356;27.672;2023-04-07T08:41:23;12.63;;;9.32;;
58372;SDS011;44177;43.356;27.672;2023-04-07T08:43:55;16.67;;;10.82;;
58372;SDS011;44177;43.356;27.672;2023-04-07T08:46:22;18.73;;;10.55;;
58372;SDS011;44177;43.356;27.672;2023-04-07T08:48:50;15.93;;;10.88;;
58372;SDS011;44177;43.356;27.672;2023-04-07T08:51:17;17.95;;;10.45;;
58372;SDS011;44177;43.356;27.672;2023-04-07T08:54:04;16.80;;;11.25;;
58372;SDS011;44177;43.356;27.672;2023-04-07T08:56:34;15.88;;;10.98;;
58372;SDS011;44177;43.356;27.672;2023-04-07T08:59:02;13.25;;;9.75;;
58372;SDS011;44177;43.356;27.672;2023-04-07T09:01:30;14.77;;;9.73;;
58372;SDS011;44177;43.356;27.672;2023-04-07T09:03:57;15.90;;;10.50;;
58372;SDS011;44177;43.356;27.672;2023-04-07T09:06:23;16.88;;;9.68;;
58372;SDS011;44177;43.356;27.672;2023-04-07T09:08:51;17.10;;;10.23;;
58372;SDS011;44177;43.356;27.672;2023-04-07T09:11:16;16.02;;;10.48;;
58372;SDS011;44177;43.356;27.672;2023-04-07T09:13:42;16.00;;;10.00;;
58372;SDS011;44177;43.356;27.672;2023-04-07T09:16:07;15.13;;;9.63;;
58372;SDS011;44177;43.356;27.672;2023-04-07T09:18:33;18.13;;;10.82;;
58372;SDS011;44177;43.356;27.672;2023-04-07T09:23:33;11.90;;;8.82;;
58372;SDS011;44177;43.356;27.672;2023-04-07T09:26:01;13.57;;;8.73;;
58372;SDS011;44177;43.356;27.672;2023-04-07T09:29:00;16.88;;;9.25;;
58372;SDS011;44177;43.356;27.672;2023-04-07T09:34:27;13.98;;;9.60;;
58372;SDS011;44177;43.356;27.672;2023-04-07T09:36:53;13.75;;;9.23;;
58372;SDS011;44177;43.356;27.672;2023-04-07T09:39:19;12.40;;;8.82;;
58372;SDS011;44177;43.356;27.672;2023-04-07T09:41:45;13.68;;;9.45;;
58372;SDS011;44177;43.356;27.672;2023-04-07T09:44:11;15.32;;;8.73;;
58372;SDS011;44177;43.356;27.672;2023-04-07T09:46:47;13.88;;;8.55;;
58372;SDS011;44177;43.356;27.672;2023-04-07T09:49:19;11.70;;;7.63;;
58372;SDS011;44177;43.356;27.672;2023-04-07T09:52:21;12.35;;;8.07;;
58372;SDS011;44177;43.356;27.672;2023-04-07T09:54:37;13.18;;;8.82;;
58372;SDS011;44177;43.356;27.672;2023-04-07T09:57:06;13.85;;;8.38;;
58372;SDS011;44177;43.356;27.672;2023-04-07T09:59:34;14.48;;;8.48;;
58372;SDS011;44177;43.356;27.672;2023-04-07T10:02:01;12.30;;;9.18;;
58372;SDS011;44177;43.356;27.672;2023-04-07T10:04:27;12.52;;;7.93;;
58372;SDS011;44177;43.356;27.672;2023-04-07T10:06:56;15.65;;;9.27;;
58372;SDS011;44177;43.356;27.672;2023-04-07T10:09:23;12.75;;;8.60;;
58372;SDS011;44177;43.356;27.672;2023-04-07T10:11:51;14.35;;;8.40;;
58372;SDS011;44177;43.356;27.672;2023-04-07T10:14:18;13.18;;;8.70;;
58372;SDS011;44177;43.356;27.672;2023-04-07T10:16:45;14.98;;;9.18;;
58372;SDS011;44177;43.356;27.672;2023-04-07T10:19:11;14.57;;;8.68;;
58372;SDS011;44177;43.356;27.672;2023-04-07T10:21:41;15.07;;;8.63;;
58372;SDS011;44177;43.356;27.672;2023-04-07T10:24:13;14.98;;;8.68;;
58372;SDS011;44177;43.356;27.672;2023-04-07T10:27:00;17.98;;;8.77;;
58372;SDS011;44177;43.356;27.672;2023-04-07T10:29:36;16.13;;;9.50;;
58372;SDS011;44177;43.356;27.672;2023-04-07T10:32:06;16.67;;;9.20;;
58372;SDS011;44177;43.356;27.672;2023-04-07T10:39:45;15.25;;;8.85;;
58372;SDS011;44177;43.356;27.672;2023-04-07T10:45:05;14.95;;;9.27;;
58372;SDS011;44177;43.356;27.672;2023-04-07T10:47:31;11.75;;;8.07;;
58372;SDS011;44177;43.356;27.672;2023-04-07T10:52:41;12.60;;;8.02;;
58372;SDS011;44177;43.356;27.672;2023-04-07T11:00:40;13.15;;;8.60;;
58372;SDS011;44177;43.356;27.672;2023-04-07T11:03:12;13.00;;;8.60;;
58372;SDS011;44177;43.356;27.672;2023-04-07T11:05:41;11.93;;;8.60;;
58372;SDS011;44177;43.356;27.672;2023-04-07T11:08:07;13.68;;;8.57;;
58372;SDS011;44177;43.356;27.672;2023-04-07T11:10:33;13.93;;;8.90;;
58372;SDS011;44177;43.356;27.672;2023-04-07T11:13:00;13.43;;;8.50;;
58372;SDS011;44177;43.356;27.672;2023-04-07T11:15:27;16.85;;;8.85;;
58372;SDS011;44177;43.356;27.672;2023-04-07T11:18:12;14.90;;;10.20;;
58372;SDS011;44177;43.356;27.672;2023-04-07T11:20:41;11.35;;;8.60;;
58372;SDS011;44177;43.356;27.672;2023-04-07T11:23:09;13.25;;;8.55;;
58372;SDS011;44177;43.356;27.672;2023-04-07T11:25:36;10.07;;;7.45;;
58372;SDS011;44177;43.356;27.672;2023-04-07T11:28:04;13.32;;;8.88;;
58372;SDS011;44177;43.356;27.672;2023-04-07T11:30:30;13.63;;;8.43;;
58372;SDS011;44177;43.356;27.672;2023-04-07T11:32:56;9.63;;;7.82;;
58372;SDS011;44177;43.356;27.672;2023-04-07T11:35:21;13.52;;;9.05;;
58372;SDS011;44177;43.356;27.672;2023-04-07T11:37:47;16.27;;;8.85;;
58372;SDS011;44177;43.356;27.672;2023-04-07T11:40:13;12.70;;;7.72;;
58372;SDS011;44177;43.356;27.672;2023-04-07T11:42:58;14.07;;;9.13;;
58372;SDS011;44177;43.356;27.672;2023-04-07T11:45:23;13.52;;;9.10;;
58372;SDS011;44177;43.356;27.672;2023-04-07T11:47:49;10.38;;;7.57;;
58372;SDS011;44177;43.356;27.672;2023-04-07T11:50:15;11.07;;;7.88;;
58372;SDS011;44177;43.356;27.672;2023-04-07T11:52:44;13.48;;;8.27;;
58372;SDS011;44177;43.356;27.672;2023-04-07T11:55:18;15.18;;;9.77;;
58372;SDS011;44177;43.356;27.672;2023-04-07T11:57:48;12.10;;;7.95;;
58372;SDS011;44177;43.356;27.672;2023-04-07T12:00:18;10.68;;;7.32;;
58372;SDS011;44177;43.356;27.672;2023-04-07T12:02:44;12.02;;;7.97;;
58372;SDS011;44177;43.356;27.672;2023-04-07T12:05:10;10.68;;;7.95;;
58372;SDS011;44177;43.356;27.672;2023-04-07T12:07:36;11.18;;;8.30;;
58372;SDS011;44177;43.356;27.672;2023-04-07T12:10:21;15.40;;;10.10;;
58372;SDS011;44177;43.356;27.672;2023-04-07T12:12:47;12.40;;;8.10;;
58372;SDS011;44177;43.356;27.672;2023-04-07T12:15:13;9.95;;;7.32;;
58372;SDS011;44177;43.356;27.672;2023-04-07T12:17:46;12.40;;;7.72;;
58372;SDS011;44177;43.356;27.672;2023-04-07T12:20:13;12.70;;;8.13;;
58372;SDS011;44177;43.356;27.672;2023-04-07T12:22:39;11.45;;;7.80;;
58372;SDS011;44177;43.356;27.672;2023-04-07T12:25:05;13.73;;;8.25;;
58372;SDS011;44177;43.356;27.672;2023-04-07T12:27:31;12.00;;;7.95;;
58372;SDS011;44177;43.356;27.672;2023-04-07T12:29:57;11.18;;;8.07;;
58372;SDS011;44177;43.356;27.672;2023-04-07T12:32:22;11.90;;;8.30;;
58372;SDS011;44177;43.356;27.672;2023-04-07T12:34:47;13.73;;;8.10;;
58372;SDS011;44177;43.356;27.672;2023-04-07T12:37:13;11.82;;;8.52;;
58372;SDS011;44177;43.356;27.672;2023-04-07T12:39:38;13.43;;;8.45;;
58372;SDS011;44177;43.356;27.672;2023-04-07T12:42:04;13.18;;;8.32;;
58372;SDS011;44177;43.356;27.672;2023-04-07T12:44:30;10.07;;;7.88;;
58372;SDS011;44177;43.356;27.672;2023-04-07T12:46:55;11.23;;;8.23;;
58372;SDS011;44177;43.356;27.672;2023-04-07T12:49:21;13.50;;;8.15;;
58372;SDS011;44177;43.356;27.672;2023-04-07T12:51:46;13.52;;;8.15;;
58372;SDS011;44177;43.356;27.672;2023-04-07T12:54:12;13.50;;;8.07;;
58372;SDS011;44177;43.356;27.672;2023-04-07T12:56:37;12.95;;;8.32;;
58372;SDS011;44177;43.356;27.672;2023-04-07T12:59:04;10.68;;;8.05;;
58372;SDS011;44177;43.356;27.672;2023-04-07T13:01:30;11.68;;;8.27;;
58372;SDS011;44177;43.356;27.672;2023-04-07T13:03:56;10.57;;;7.88;;
58372;SDS011;44177;43.356;27.672;2023-04-07T13:06:21;19.55;;;12.18;;
58372;SDS011;44177;43.356;27.672;2023-04-07T13:08:47;11.35;;;8.40;;
58372;SDS011;44177;43.356;27.672;2023-04-07T13:11:12;12.30;;;8.38;;
58372;SDS011;44177;43.356;27.672;2023-04-07T13:13:38;17.00;;;9.82;;
58372;SDS011;44177;43.356;27.672;2023-04-07T13:16:03;23.40;;;15.25;;
58372;SDS011;44177;43.356;27.672;2023-04-07T13:18:29;26.63;;;18.05;;
58372;SDS011;44177;43.356;27.672;2023-04-07T13:20:54;14.05;;;8.50;;
58372;SDS011;44177;43.356;27.672;2023-04-07T13:23:20;36.50;;;21.50;;
58372;SDS011;44177;43.356;27.672;2023-04-07T13:25:45;18.90;;;11.43;;
58372;SDS011;44177;43.356;27.672;2023-04-07T13:28:11;10.43;;;6.93;;
58372;SDS011;44177;43.356;27.672;2023-04-07T13:30:36;11.88;;;8.32;;
58372;SDS011;44177;43.356;27.672;2023-04-07T13:33:02;12.90;;;7.70;;
58372;SDS011;44177;43.356;27.672;2023-04-07T13:35:27;13.40;;;9.55;;
58372;SDS011;44177;43.356;27.672;2023-04-07T13:37:54;19.80;;;13.95;;
58372;SDS011;44177;43.356;27.672;2023-04-07T13:40:20;13.05;;;8.20;;
58372;SDS011;44177;43.356;27.672;2023-04-07T13:42:46;14.65;;;9.77;;
58372;SDS011;44177;43.356;27.672;2023-04-07T13:45:11;10.80;;;7.80;;
58372;SDS011;44177;43.356;27.672;2023-04-07T13:47:37;11.85;;;8.38;;
58372;SDS011;44177;43.356;27.672;2023-04-07T13:50:03;11.13;;;8.52;;
58372;SDS011;44177;43.356;27.672;2023-04-07T13:52:29;13.68;;;8.73;;
58372;SDS011;44177;43.356;27.672;2023-04-07T13:54:56;10.27;;;8.30;;
58372;SDS011;44177;43.356;27.672;2023-04-07T13:57:22;19.25;;;12.70;;
58372;SDS011;44177;43.356;27.672;2023-04-07T13:59:48;11.93;;;8.50;;
58372;SDS011;44177;43.356;27.672;2023-04-07T14:02:16;13.48;;;8.80;;
58372;SDS011;44177;43.356;27.672;2023-04-07T14:04:43;10.82;;;8.48;;
58372;SDS011;44177;43.356;27.672;2023-04-07T14:07:09;12.27;;;9.10;;
58372;SDS011;44177;43.356;27.672;2023-04-07T14:09:34;19.65;;;13.10;;
58372;SDS011;44177;43.356;27.672;2023-04-07T14:12:00;16.55;;;11.05;;
58372;SDS011;44177;43.356;27.672;2023-04-07T14:14:25;20.23;;;11.23;;
58372;SDS011;44177;43.356;27.672;2023-04-07T14:16:51;14.18;;;8.98;;
58372;SDS011;44177;43.356;27.672;2023-04-07T14:19:20;14.45;;;8.98;;
58372;SDS011;44177;43.356;27.672;2023-04-07T14:21:51;15.80;;;8.32;;
58372;SDS011;44177;43.356;27.672;2023-04-07T14:24:17;19.48;;;10.10;;
58372;SDS011;44177;43.356;27.672;2023-04-07T14:26:43;14.05;;;9.00;;
58372;SDS011;44177;43.356;27.672;2023-04-07T14:29:13;15.25;;;10.02;;
58372;SDS011;44177;43.356;27.672;2023-04-07T14:31:39;16.25;;;10.00;;
58372;SDS011;44177;43.356;27.672;2023-04-07T14:34:05;13.40;;;9.90;;
58372;SDS011;44177;43.356;27.672;2023-04-07T14:36:32;15.60;;;9.30;;
58372;SDS011;44177;43.356;27.672;2023-04-07T14:38:57;17.60;;;10.50;;
58372;SDS011;44177;43.356;27.672;2023-04-07T14:41:23;15.25;;;10.48;;
58372;SDS011;44177;43.356;27.672;2023-04-07T14:43:49;17.17;;;10.90;;
58372;SDS011;44177;43.356;27.672;2023-04-07T14:46:20;16.77;;;10.68;;
58372;SDS011;44177;43.356;27.672;2023-04-07T14:48:49;19.75;;;10.90;;